Terminal Aerodrome Forecast
Issued by NWS

Home | Current Version | Previous Version | Text Only | Print | Product List | Glossary On
Versions: 1 2 3 4 5 6 7 8 9 10 11 12 13
176
FTUS43 KMQT 232325
TAFIWD
TAF
KIWD 232325Z 2400/2424 18006KT P6SM SCT080
     FM240500 20015KT P6SM BKN070 WS020/23050KT
     FM241100 21014KT P6SM BKN150 WS020/25040KT
     FM241300 21012KT P6SM BKN110
     FM241500 21012KT P6SM VCSH BKN070
     FM241800 23012G20KT P6SM OVC020
     FM242000 25012G21KT P6SM BKN015
     FM242300 28013G23KT P6SM BKN010=

USA.gov is the U.S. government's official web portal to all federal, state and local government web resources and services.